Aviation Digital Data Service (ADDS)

Output produced by METARs form (0340 UTC 26 April 2019)
found at http://www.aviationweather.gov/metar/data/
 
METAR text: UTSK 260330Z 00000KT CAVOK 11/08 Q1026 R16/CLRD70
Conditions at: UTSK (KARSHI KHANABAD , UZ) observed 0330 UTC 26 April 2019
Temperature: 11.0°C (52°F)
Dewpoint: 8.0°C (46°F) [RH = 82%]
Pressure (altimeter): 30.30 inches Hg (1026.0 mb)
Winds: calm
Visibility: 6 or more miles (10+ km)
Ceiling: ceiling and visibility are OK
Clouds: unknown
Weather: no significant weather observed at this time

METAR text: UTSK 260300Z VRB02KT CAVOK 11/08 Q1026 R16/CLRD70
Conditions at: UTSK (KARSHI KHANABAD , UZ) observed 0300 UTC 26 April 2019
Temperature: 11.0°C (52°F)
Dewpoint: 8.0°C (46°F) [RH = 82%]
Pressure (altimeter): 30.30 inches Hg (1026.0 mb)
Winds: variable direction winds at 2 MPH (2 knots; 1.0 m/s)
Visibility: 6 or more miles (10+ km)
Ceiling: ceiling and visibility are OK
Clouds: unknown
Weather: no significant weather observed at this time

METAR text: UTSK 260230Z VRB02KT CAVOK 08/07 Q1025 R16/CLRD70
Conditions at: UTSK (KARSHI KHANABAD , UZ) observed 0230 UTC 26 April 2019
Temperature: 8.0°C (46°F)
Dewpoint: 7.0°C (45°F) [RH = 93%]
Pressure (altimeter): 30.27 inches Hg (1025.0 mb)
Winds: variable direction winds at 2 MPH (2 knots; 1.0 m/s)
Visibility: 6 or more miles (10+ km)
Ceiling: ceiling and visibility are OK
Clouds: unknown
Weather: no significant weather observed at this time

METAR text: UTSK 260200Z 04002KT CAVOK 08/07 Q1025 R16/CLRD70
Conditions at: UTSK (KARSHI KHANABAD , UZ) observed 0200 UTC 26 April 2019
Temperature: 8.0°C (46°F)
Dewpoint: 7.0°C (45°F) [RH = 93%]
Pressure (altimeter): 30.27 inches Hg (1025.0 mb)
Winds: from the NE (40 degrees) at 2 MPH (2 knots; 1.0 m/s)
Visibility: 6 or more miles (10+ km)
Ceiling: ceiling and visibility are OK
Clouds: unknown
Weather: no significant weather observed at this time

METAR text: UTSK 260130Z 00000KT CAVOK 08/06 Q1025 R16/CLRD70
Conditions at: UTSK (KARSHI KHANABAD , UZ) observed 0130 UTC 26 April 2019
Temperature: 8.0°C (46°F)
Dewpoint: 6.0°C (43°F) [RH = 87%]
Pressure (altimeter): 30.27 inches Hg (1025.0 mb)
Winds: calm
Visibility: 6 or more miles (10+ km)
Ceiling: ceiling and visibility are OK
Clouds: unknown
Weather: no significant weather observed at this time

METAR text: UTSK 260100Z 07004KT CAVOK 08/06 Q1025 R16/CLRD70
Conditions at: UTSK (KARSHI KHANABAD , UZ) observed 0100 UTC 26 April 2019
Temperature: 8.0°C (46°F)
Dewpoint: 6.0°C (43°F) [RH = 87%]
Pressure (altimeter): 30.27 inches Hg (1025.0 mb)
Winds: from the ENE (70 degrees) at 5 MPH (4 knots; 2.1 m/s)
Visibility: 6 or more miles (10+ km)
Ceiling: ceiling and visibility are OK
Clouds: unknown
Weather: no significant weather observed at this time

METAR text: UTSK 260030Z 06002KT CAVOK 08/07 Q1025 R16/CLRD70
Conditions at: UTSK (KARSHI KHANABAD , UZ) observed 0030 UTC 26 April 2019
Temperature: 8.0°C (46°F)
Dewpoint: 7.0°C (45°F) [RH = 93%]
Pressure (altimeter): 30.27 inches Hg (1025.0 mb)
Winds: from the ENE (60 degrees) at 2 MPH (2 knots; 1.0 m/s)
Visibility: 6 or more miles (10+ km)
Ceiling: ceiling and visibility are OK
Clouds: unknown
Weather: no significant weather observed at this time

METAR text: UTSK 260000Z 09002KT CAVOK 08/07 Q1025 R16/CLRD70
Conditions at: UTSK (KARSHI KHANABAD , UZ) observed 0000 UTC 26 April 2019
Temperature: 8.0°C (46°F)
Dewpoint: 7.0°C (45°F) [RH = 93%]
Pressure (altimeter): 30.27 inches Hg (1025.0 mb)
Winds: from the E (90 degrees) at 2 MPH (2 knots; 1.0 m/s)
Visibility: 6 or more miles (10+ km)
Ceiling: ceiling and visibility are OK
Clouds: unknown
Weather: no significant weather observed at this time

METAR text: UTSK 252330Z 06002KT CAVOK 08/07 Q1024 R16/CLRD70
Conditions at: UTSK (KARSHI KHANABAD , UZ) observed 2330 UTC 25 April 2019
Temperature: 8.0°C (46°F)
Dewpoint: 7.0°C (45°F) [RH = 93%]
Pressure (altimeter): 30.24 inches Hg (1024.0 mb)
Winds: from the ENE (60 degrees) at 2 MPH (2 knots; 1.0 m/s)
Visibility: 6 or more miles (10+ km)
Ceiling: ceiling and visibility are OK
Clouds: unknown
Weather: no significant weather observed at this time

METAR text: UTSK 252300Z 08004KT CAVOK 08/07 Q1024 R16/CLRD70
Conditions at: UTSK (KARSHI KHANABAD , UZ) observed 2300 UTC 25 April 2019
Temperature: 8.0°C (46°F)
Dewpoint: 7.0°C (45°F) [RH = 93%]
Pressure (altimeter): 30.24 inches Hg (1024.0 mb)
Winds: from the E (80 degrees) at 5 MPH (4 knots; 2.1 m/s)
Visibility: 6 or more miles (10+ km)
Ceiling: ceiling and visibility are OK
Clouds: unknown
Weather: no significant weather observed at this time

METAR text: UTSK 252230Z 00000KT CAVOK 08/07 Q1024 R16/CLRD70
Conditions at: UTSK (KARSHI KHANABAD , UZ) observed 2230 UTC 25 April 2019
Temperature: 8.0°C (46°F)
Dewpoint: 7.0°C (45°F) [RH = 93%]
Pressure (altimeter): 30.24 inches Hg (1024.0 mb)
Winds: calm
Visibility: 6 or more miles (10+ km)
Ceiling: ceiling and visibility are OK
Clouds: unknown
Weather: no significant weather observed at this time

METAR text: UTSK 252200Z 06002KT CAVOK 08/07 Q1024 R16/CLRD70
Conditions at: UTSK (KARSHI KHANABAD , UZ) observed 2200 UTC 25 April 2019
Temperature: 8.0°C (46°F)
Dewpoint: 7.0°C (45°F) [RH = 93%]
Pressure (altimeter): 30.24 inches Hg (1024.0 mb)
Winds: from the ENE (60 degrees) at 2 MPH (2 knots; 1.0 m/s)
Visibility: 6 or more miles (10+ km)
Ceiling: ceiling and visibility are OK
Clouds: unknown
Weather: no significant weather observed at this time

METAR text: UTSK 252130Z 07002KT CAVOK 07/06 Q1025 R16/CLRD70
Conditions at: UTSK (KARSHI KHANABAD , UZ) observed 2130 UTC 25 April 2019
Temperature: 7.0°C (45°F)
Dewpoint: 6.0°C (43°F) [RH = 93%]
Pressure (altimeter): 30.27 inches Hg (1025.0 mb)
Winds: from the ENE (70 degrees) at 2 MPH (2 knots; 1.0 m/s)
Visibility: 6 or more miles (10+ km)
Ceiling: ceiling and visibility are OK
Clouds: unknown
Weather: no significant weather observed at this time

METAR text: UTSK 252100Z 00000KT CAVOK 07/06 Q1025 R16/CLRD70
Conditions at: UTSK (KARSHI KHANABAD , UZ) observed 2100 UTC 25 April 2019
Temperature: 7.0°C (45°F)
Dewpoint: 6.0°C (43°F) [RH = 93%]
Pressure (altimeter): 30.27 inches Hg (1025.0 mb)
Winds: calm
Visibility: 6 or more miles (10+ km)
Ceiling: ceiling and visibility are OK
Clouds: unknown
Weather: no significant weather observed at this time

METAR text: UTSK 252030Z 07002KT CAVOK 09/07 Q1025 R16/CLRD70
Conditions at: UTSK (KARSHI KHANABAD , UZ) observed 2030 UTC 25 April 2019
Temperature: 9.0°C (48°F)
Dewpoint: 7.0°C (45°F) [RH = 87%]
Pressure (altimeter): 30.27 inches Hg (1025.0 mb)
Winds: from the ENE (70 degrees) at 2 MPH (2 knots; 1.0 m/s)
Visibility: 6 or more miles (10+ km)
Ceiling: ceiling and visibility are OK
Clouds: unknown
Weather: no significant weather observed at this time

METAR text: UTSK 252000Z VRB02KT CAVOK 09/07 Q1025 R16/CLRD70
Conditions at: UTSK (KARSHI KHANABAD , UZ) observed 2000 UTC 25 April 2019
Temperature: 9.0°C (48°F)
Dewpoint: 7.0°C (45°F) [RH = 87%]
Pressure (altimeter): 30.27 inches Hg (1025.0 mb)
Winds: variable direction winds at 2 MPH (2 knots; 1.0 m/s)
Visibility: 6 or more miles (10+ km)
Ceiling: ceiling and visibility are OK
Clouds: unknown
Weather: no significant weather observed at this time

METAR text: UTSK 251930Z VRB02KT CAVOK 09/07 Q1025 R16/CLRD70
Conditions at: UTSK (KARSHI KHANABAD , UZ) observed 1930 UTC 25 April 2019
Temperature: 9.0°C (48°F)
Dewpoint: 7.0°C (45°F) [RH = 87%]
Pressure (altimeter): 30.27 inches Hg (1025.0 mb)
Winds: variable direction winds at 2 MPH (2 knots; 1.0 m/s)
Visibility: 6 or more miles (10+ km)
Ceiling: ceiling and visibility are OK
Clouds: unknown
Weather: no significant weather observed at this time

METAR text: UTSK 251900Z 05002KT CAVOK 09/07 Q1025 R16/CLRD70
Conditions at: UTSK (KARSHI KHANABAD , UZ) observed 1900 UTC 25 April 2019
Temperature: 9.0°C (48°F)
Dewpoint: 7.0°C (45°F) [RH = 87%]
Pressure (altimeter): 30.27 inches Hg (1025.0 mb)
Winds: from the NE (50 degrees) at 2 MPH (2 knots; 1.0 m/s)
Visibility: 6 or more miles (10+ km)
Ceiling: ceiling and visibility are OK
Clouds: unknown
Weather: no significant weather observed at this time

METAR text: UTSK 251830Z 07002KT CAVOK 10/08 Q1026 R16/CLRD70
Conditions at: UTSK (KARSHI KHANABAD , UZ) observed 1830 UTC 25 April 2019
Temperature: 10.0°C (50°F)
Dewpoint: 8.0°C (46°F) [RH = 87%]
Pressure (altimeter): 30.30 inches Hg (1026.0 mb)
Winds: from the ENE (70 degrees) at 2 MPH (2 knots; 1.0 m/s)
Visibility: 6 or more miles (10+ km)
Ceiling: ceiling and visibility are OK
Clouds: unknown
Weather: no significant weather observed at this time

METAR text: UTSK 251800Z VRB02KT CAVOK 10/08 Q1026 R16/CLRD70
Conditions at: UTSK (KARSHI KHANABAD , UZ) observed 1800 UTC 25 April 2019
Temperature: 10.0°C (50°F)
Dewpoint: 8.0°C (46°F) [RH = 87%]
Pressure (altimeter): 30.30 inches Hg (1026.0 mb)
Winds: variable direction winds at 2 MPH (2 knots; 1.0 m/s)
Visibility: 6 or more miles (10+ km)
Ceiling: ceiling and visibility are OK
Clouds: unknown
Weather: no significant weather observed at this time

METAR text: UTSK 251730Z 08004KT CAVOK 11/08 Q1026 R16/CLRD70
Conditions at: UTSK (KARSHI KHANABAD , UZ) observed 1730 UTC 25 April 2019
Temperature: 11.0°C (52°F)
Dewpoint: 8.0°C (46°F) [RH = 82%]
Pressure (altimeter): 30.30 inches Hg (1026.0 mb)
Winds: from the E (80 degrees) at 5 MPH (4 knots; 2.1 m/s)
Visibility: 6 or more miles (10+ km)
Ceiling: ceiling and visibility are OK
Clouds: unknown
Weather: no significant weather observed at this time

METAR text: UTSK 251700Z 09004KT 8000 NSC 11/08 Q1026 R16/CLRD70
Conditions at: UTSK (KARSHI KHANABAD , UZ) observed 1700 UTC 25 April 2019
Temperature: 11.0°C (52°F)
Dewpoint: 8.0°C (46°F) [RH = 82%]
Pressure (altimeter): 30.30 inches Hg (1026.0 mb)
Winds: from the E (90 degrees) at 5 MPH (4 knots; 2.1 m/s)
Visibility: 5 miles ( 8 km)
Ceiling: at least 12,000 feet AGL
Clouds: sky clear below 12,000 feet AGL
Weather: no significant weather observed at this time

METAR text: UTSK 251630Z 00000KT CAVOK 12/06 Q1026 R16/CLRD70
Conditions at: UTSK (KARSHI KHANABAD , UZ) observed 1630 UTC 25 April 2019
Temperature: 12.0°C (54°F)
Dewpoint: 6.0°C (43°F) [RH = 67%]
Pressure (altimeter): 30.30 inches Hg (1026.0 mb)
Winds: calm
Visibility: 6 or more miles (10+ km)
Ceiling: ceiling and visibility are OK
Clouds: unknown
Weather: no significant weather observed at this time

METAR text: UTSK 251600Z 00000KT CAVOK 12/07 Q1026 R16/CLRD70
Conditions at: UTSK (KARSHI KHANABAD , UZ) observed 1600 UTC 25 April 2019
Temperature: 12.0°C (54°F)
Dewpoint: 7.0°C (45°F) [RH = 71%]
Pressure (altimeter): 30.30 inches Hg (1026.0 mb)
Winds: calm
Visibility: 6 or more miles (10+ km)
Ceiling: ceiling and visibility are OK
Clouds: unknown
Weather: no significant weather observed at this time

METAR text: UTSK 251530Z 01002KT CAVOK 12/06 Q1025 R16/CLRD70
Conditions at: UTSK (KARSHI KHANABAD , UZ) observed 1530 UTC 25 April 2019
Temperature: 12.0°C (54°F)
Dewpoint: 6.0°C (43°F) [RH = 67%]
Pressure (altimeter): 30.27 inches Hg (1025.0 mb)
Winds: from the N (10 degrees) at 2 MPH (2 knots; 1.0 m/s)
Visibility: 6 or more miles (10+ km)
Ceiling: ceiling and visibility are OK
Clouds: unknown
Weather: no significant weather observed at this time

METAR text: UTSK 251500Z 32002KT CAVOK 12/06 Q1025 R16/CLRD70
Conditions at: UTSK (KARSHI KHANABAD , UZ) observed 1500 UTC 25 April 2019
Temperature: 12.0°C (54°F)
Dewpoint: 6.0°C (43°F) [RH = 67%]
Pressure (altimeter): 30.27 inches Hg (1025.0 mb)
Winds: from the NW (320 degrees) at 2 MPH (2 knots; 1.0 m/s)
Visibility: 6 or more miles (10+ km)
Ceiling: ceiling and visibility are OK
Clouds: unknown
Weather: no significant weather observed at this time

METAR text: UTSK 251430Z 30002KT CAVOK 13/06 Q1025 R16/CLRD70
Conditions at: UTSK (KARSHI KHANABAD , UZ) observed 1430 UTC 25 April 2019
Temperature: 13.0°C (55°F)
Dewpoint: 6.0°C (43°F) [RH = 62%]
Pressure (altimeter): 30.27 inches Hg (1025.0 mb)
Winds: from the WNW (300 degrees) at 2 MPH (2 knots; 1.0 m/s)
Visibility: 6 or more miles (10+ km)
Ceiling: ceiling and visibility are OK
Clouds: unknown
Weather: no significant weather observed at this time

METAR text: UTSK 251400Z 31004KT CAVOK 13/06 Q1025 R16/CLRD70
Conditions at: UTSK (KARSHI KHANABAD , UZ) observed 1400 UTC 25 April 2019
Temperature: 13.0°C (55°F)
Dewpoint: 6.0°C (43°F) [RH = 62%]
Pressure (altimeter): 30.27 inches Hg (1025.0 mb)
Winds: from the NW (310 degrees) at 5 MPH (4 knots; 2.1 m/s)
Visibility: 6 or more miles (10+ km)
Ceiling: ceiling and visibility are OK
Clouds: unknown
Weather: no significant weather observed at this time

METAR text: UTSK 251330Z 30004KT CAVOK 16/04 Q1025 R16/CLRD70
Conditions at: UTSK (KARSHI KHANABAD , UZ) observed 1330 UTC 25 April 2019
Temperature: 16.0°C (61°F)
Dewpoint: 4.0°C (39°F) [RH = 45%]
Pressure (altimeter): 30.27 inches Hg (1025.0 mb)
Winds: from the WNW (300 degrees) at 5 MPH (4 knots; 2.1 m/s)
Visibility: 6 or more miles (10+ km)
Ceiling: ceiling and visibility are OK
Clouds: unknown
Weather: no significant weather observed at this time

METAR text: UTSK 251300Z 30006KT 280V340 9999 FEW046CB 16/04 Q1025 R16/CLRD70
Conditions at: UTSK (KARSHI KHANABAD , UZ) observed 1300 UTC 25 April 2019
Temperature: 16.0°C (61°F)
Dewpoint: 4.0°C (39°F) [RH = 45%]
Pressure (altimeter): 30.27 inches Hg (1025.0 mb)
Winds: from the WNW (300 degrees) at 7 MPH (6 knots; 3.1 m/s)
Visibility: 6 or more miles (10+ km)
Ceiling: at least 12,000 feet AGL
Clouds: few clouds at 4600 feet AGL
Weather: no significant weather observed at this time

METAR text: UTSK 251230Z 31006KT 270V340 9999 SCT046CB 17/04 Q1025 R16/CLRD70
Conditions at: UTSK (KARSHI KHANABAD , UZ) observed 1230 UTC 25 April 2019
Temperature: 17.0°C (63°F)
Dewpoint: 4.0°C (39°F) [RH = 42%]
Pressure (altimeter): 30.27 inches Hg (1025.0 mb)
Winds: from the NW (310 degrees) at 7 MPH (6 knots; 3.1 m/s)
Visibility: 6 or more miles (10+ km)
Ceiling: at least 12,000 feet AGL
Clouds: scattered clouds at 4600 feet AGL
Weather: no significant weather observed at this time

METAR text: UTSK 251200Z 32006KT 290V360 9999 SCT046CB 17/05 Q1025 R16/CLRD70
Conditions at: UTSK (KARSHI KHANABAD , UZ) observed 1200 UTC 25 April 2019
Temperature: 17.0°C (63°F)
Dewpoint: 5.0°C (41°F) [RH = 45%]
Pressure (altimeter): 30.27 inches Hg (1025.0 mb)
Winds: from the NW (320 degrees) at 7 MPH (6 knots; 3.1 m/s)
Visibility: 6 or more miles (10+ km)
Ceiling: at least 12,000 feet AGL
Clouds: scattered clouds at 4600 feet AGL
Weather: no significant weather observed at this time

METAR text: UTSK 251130Z 30008KT 9999 SCT046CB 16/06 Q1025 R16/CLRD70
Conditions at: UTSK (KARSHI KHANABAD , UZ) observed 1130 UTC 25 April 2019
Temperature: 16.0°C (61°F)
Dewpoint: 6.0°C (43°F) [RH = 51%]
Pressure (altimeter): 30.27 inches Hg (1025.0 mb)
Winds: from the WNW (300 degrees) at 9 MPH (8 knots; 4.1 m/s)
Visibility: 6 or more miles (10+ km)
Ceiling: at least 12,000 feet AGL
Clouds: scattered clouds at 4600 feet AGL
Weather: no significant weather observed at this time

METAR text: UTSK 251100Z 29006KT 9999 BKN050CB 16/05 Q1025 R16/CLRD70
Conditions at: UTSK (KARSHI KHANABAD , UZ) observed 1100 UTC 25 April 2019
Temperature: 16.0°C (61°F)
Dewpoint: 5.0°C (41°F) [RH = 48%]
Pressure (altimeter): 30.27 inches Hg (1025.0 mb)
Winds: from the WNW (290 degrees) at 7 MPH (6 knots; 3.1 m/s)
Visibility: 6 or more miles (10+ km)
Ceiling: 5000 feet AGL
Clouds: broken clouds at 5000 feet AGL
Weather: no significant weather observed at this time

METAR text: UTSK 251030Z 27006KT 230V300 9999 BKN050CB 16/04 Q1025 R16/CLRD70
Conditions at: UTSK (KARSHI KHANABAD , UZ) observed 1030 UTC 25 April 2019
Temperature: 16.0°C (61°F)
Dewpoint: 4.0°C (39°F) [RH = 45%]
Pressure (altimeter): 30.27 inches Hg (1025.0 mb)
Winds: from the W (270 degrees) at 7 MPH (6 knots; 3.1 m/s)
Visibility: 6 or more miles (10+ km)
Ceiling: 5000 feet AGL
Clouds: broken clouds at 5000 feet AGL
Weather: no significant weather observed at this time

METAR text: UTSK 251000Z 26006KT 230V310 9999 BKN043CB 16/03 Q1025 R16/CLRD70
Conditions at: UTSK (KARSHI KHANABAD , UZ) observed 1000 UTC 25 April 2019
Temperature: 16.0°C (61°F)
Dewpoint: 3.0°C (37°F) [RH = 42%]
Pressure (altimeter): 30.27 inches Hg (1025.0 mb)
Winds: from the W (260 degrees) at 7 MPH (6 knots; 3.1 m/s)
Visibility: 6 or more miles (10+ km)
Ceiling: 4300 feet AGL
Clouds: broken clouds at 4300 feet AGL
Weather: no significant weather observed at this time

METAR text: UTSK 250930Z 27008KT 250V310 9999 BKN043CB 17/05 Q1025 R16/CLRD70
Conditions at: UTSK (KARSHI KHANABAD , UZ) observed 0930 UTC 25 April 2019
Temperature: 17.0°C (63°F)
Dewpoint: 5.0°C (41°F) [RH = 45%]
Pressure (altimeter): 30.27 inches Hg (1025.0 mb)
Winds: from the W (270 degrees) at 9 MPH (8 knots; 4.1 m/s)
Visibility: 6 or more miles (10+ km)
Ceiling: 4300 feet AGL
Clouds: broken clouds at 4300 feet AGL
Weather: no significant weather observed at this time

METAR text: UTSK 250900Z 26006KT 220V320 9999 BKN040CB 17/05 Q1025 R16/CLRD70
Conditions at: UTSK (KARSHI KHANABAD , UZ) observed 0900 UTC 25 April 2019
Temperature: 17.0°C (63°F)
Dewpoint: 5.0°C (41°F) [RH = 45%]
Pressure (altimeter): 30.27 inches Hg (1025.0 mb)
Winds: from the W (260 degrees) at 7 MPH (6 knots; 3.1 m/s)
Visibility: 6 or more miles (10+ km)
Ceiling: 4000 feet AGL
Clouds: broken clouds at 4000 feet AGL
Weather: no significant weather observed at this time

METAR text: UTSK 250830Z 30006KT 240V350 9999 BKN040CB 15/06 Q1025 R16/CLRD70
Conditions at: UTSK (KARSHI KHANABAD , UZ) observed 0830 UTC 25 April 2019
Temperature: 15.0°C (59°F)
Dewpoint: 6.0°C (43°F) [RH = 55%]
Pressure (altimeter): 30.27 inches Hg (1025.0 mb)
Winds: from the WNW (300 degrees) at 7 MPH (6 knots; 3.1 m/s)
Visibility: 6 or more miles (10+ km)
Ceiling: 4000 feet AGL
Clouds: broken clouds at 4000 feet AGL
Weather: no significant weather observed at this time

METAR text: UTSK 250800Z 31004KT 240V360 9999 BKN040CB 15/06 Q1025 R16/CLRD70
Conditions at: UTSK (KARSHI KHANABAD , UZ) observed 0800 UTC 25 April 2019
Temperature: 15.0°C (59°F)
Dewpoint: 6.0°C (43°F) [RH = 55%]
Pressure (altimeter): 30.27 inches Hg (1025.0 mb)
Winds: from the NW (310 degrees) at 5 MPH (4 knots; 2.1 m/s)
Visibility: 6 or more miles (10+ km)
Ceiling: 4000 feet AGL
Clouds: broken clouds at 4000 feet AGL
Weather: no significant weather observed at this time

METAR text: UTSK 250730Z 28006KT 240V320 9999 BKN040CB 14/07 Q1026 R16/CLRD70
Conditions at: UTSK (KARSHI KHANABAD , UZ) observed 0730 UTC 25 April 2019
Temperature: 14.0°C (57°F)
Dewpoint: 7.0°C (45°F) [RH = 63%]
Pressure (altimeter): 30.30 inches Hg (1026.0 mb)
Winds: from the W (280 degrees) at 7 MPH (6 knots; 3.1 m/s)
Visibility: 6 or more miles (10+ km)
Ceiling: 4000 feet AGL
Clouds: broken clouds at 4000 feet AGL
Weather: no significant weather observed at this time

METAR text: UTSK 250700Z 31004KT 260V350 9999 BKN026CB 14/07 Q1026 R16/CLRD70
Conditions at: UTSK (KARSHI KHANABAD , UZ) observed 0700 UTC 25 April 2019
Temperature: 14.0°C (57°F)
Dewpoint: 7.0°C (45°F) [RH = 63%]
Pressure (altimeter): 30.30 inches Hg (1026.0 mb)
Winds: from the NW (310 degrees) at 5 MPH (4 knots; 2.1 m/s)
Visibility: 6 or more miles (10+ km)
Ceiling: 2600 feet AGL
Clouds: broken clouds at 2600 feet AGL
Weather: no significant weather observed at this time

METAR text: UTSK 250630Z VRB02KT 9999 BKN026CB 14/07 Q1026 R16/CLRD70
Conditions at: UTSK (KARSHI KHANABAD , UZ) observed 0630 UTC 25 April 2019
Temperature: 14.0°C (57°F)
Dewpoint: 7.0°C (45°F) [RH = 63%]
Pressure (altimeter): 30.30 inches Hg (1026.0 mb)
Winds: variable direction winds at 2 MPH (2 knots; 1.0 m/s)
Visibility: 6 or more miles (10+ km)
Ceiling: 2600 feet AGL
Clouds: broken clouds at 2600 feet AGL
Weather: no significant weather observed at this time

METAR text: UTSK 250600Z 30004KT 230V340 9999 BKN023CB 14/07 Q1026 R16/190060
Conditions at: UTSK (KARSHI KHANABAD , UZ) observed 0600 UTC 25 April 2019
Temperature: 14.0°C (57°F)
Dewpoint: 7.0°C (45°F) [RH = 63%]
Pressure (altimeter): 30.30 inches Hg (1026.0 mb)
Winds: from the WNW (300 degrees) at 5 MPH (4 knots; 2.1 m/s)
Visibility: 6 or more miles (10+ km)
Ceiling: 2300 feet AGL
Clouds: broken clouds at 2300 feet AGL
Weather: no significant weather observed at this time

METAR text: UTSK 250530Z 14002KT 9999 SCT023CB 14/08 Q1026 R16/190060
Conditions at: UTSK (KARSHI KHANABAD , UZ) observed 0530 UTC 25 April 2019
Temperature: 14.0°C (57°F)
Dewpoint: 8.0°C (46°F) [RH = 67%]
Pressure (altimeter): 30.30 inches Hg (1026.0 mb)
Winds: from the SE (140 degrees) at 2 MPH (2 knots; 1.0 m/s)
Visibility: 6 or more miles (10+ km)
Ceiling: at least 12,000 feet AGL
Clouds: scattered clouds at 2300 feet AGL
Weather: no significant weather observed at this time

METAR text: UTSK 250500Z VRB02KT 9999 SCT033CB 14/07 Q1026 R16/190060
Conditions at: UTSK (KARSHI KHANABAD , UZ) observed 0500 UTC 25 April 2019
Temperature: 14.0°C (57°F)
Dewpoint: 7.0°C (45°F) [RH = 63%]
Pressure (altimeter): 30.30 inches Hg (1026.0 mb)
Winds: variable direction winds at 2 MPH (2 knots; 1.0 m/s)
Visibility: 6 or more miles (10+ km)
Ceiling: at least 12,000 feet AGL
Clouds: scattered clouds at 3300 feet AGL
Weather: no significant weather observed at this time

METAR text: UTSK 250430Z 08002KT 9999 BKN033CB 11/09 Q1026 R16/190060
Conditions at: UTSK (KARSHI KHANABAD , UZ) observed 0430 UTC 25 April 2019
Temperature: 11.0°C (52°F)
Dewpoint: 9.0°C (48°F) [RH = 87%]
Pressure (altimeter): 30.30 inches Hg (1026.0 mb)
Winds: from the E (80 degrees) at 2 MPH (2 knots; 1.0 m/s)
Visibility: 6 or more miles (10+ km)
Ceiling: 3300 feet AGL
Clouds: broken clouds at 3300 feet AGL
Weather: no significant weather observed at this time

METAR text: UTSK 250400Z VRB02KT 9999 FEW023 BKN050CB 11/09 Q1026 R16/190060
Conditions at: UTSK (KARSHI KHANABAD , UZ) observed 0400 UTC 25 April 2019
Temperature: 11.0°C (52°F)
Dewpoint: 9.0°C (48°F) [RH = 87%]
Pressure (altimeter): 30.30 inches Hg (1026.0 mb)
Winds: variable direction winds at 2 MPH (2 knots; 1.0 m/s)
Visibility: 6 or more miles (10+ km)
Ceiling: 5000 feet AGL
Clouds: few clouds at 2300 feet AGL
broken clouds at 5000 feet AGL
Weather: no significant weather observed at this time

METAR text: UTSK 250330Z VRB02KT 9999 FEW018 BKN050CB 09/09 Q1026 R16/190060
Conditions at: UTSK (KARSHI KHANABAD , UZ) observed 0330 UTC 25 April 2019
Temperature: 9.0°C (48°F)
Dewpoint: 9.0°C (48°F) [RH = 100%]
Pressure (altimeter): 30.30 inches Hg (1026.0 mb)
Winds: variable direction winds at 2 MPH (2 knots; 1.0 m/s)
Visibility: 6 or more miles (10+ km)
Ceiling: 5000 feet AGL
Clouds: few clouds at 1800 feet AGL
broken clouds at 5000 feet AGL
Weather: no significant weather observed at this time

METAR text: UTSK 250300Z 14004KT 9000 FEW050CB 09/09 Q1026 R16/290050
Conditions at: UTSK (KARSHI KHANABAD , UZ) observed 0300 UTC 25 April 2019
Temperature: 9.0°C (48°F)
Dewpoint: 9.0°C (48°F) [RH = 100%]
Pressure (altimeter): 30.30 inches Hg (1026.0 mb)
Winds: from the SE (140 degrees) at 5 MPH (4 knots; 2.1 m/s)
Visibility: 6 miles ( 9 km)
Ceiling: at least 12,000 feet AGL
Clouds: few clouds at 5000 feet AGL
Weather: no significant weather observed at this time

METAR text: UTSK 250230Z 14002KT 5000 BR FEW049CB 08/08 Q1025 R16/290050
Conditions at: UTSK (KARSHI KHANABAD , UZ) observed 0230 UTC 25 April 2019
Temperature: 8.0°C (46°F)
Dewpoint: 8.0°C (46°F) [RH = 100%]
Pressure (altimeter): 30.27 inches Hg (1025.0 mb)
Winds: from the SE (140 degrees) at 2 MPH (2 knots; 1.0 m/s)
Visibility: 3 miles ( 5 km)
Ceiling: at least 12,000 feet AGL
Clouds: few clouds at 4900 feet AGL
Weather: BR  (mist)

METAR text: UTSK 250200Z 13002KT 2100 BR FEW050CB 08/08 Q1025 R16/290050
Conditions at: UTSK (KARSHI KHANABAD , UZ) observed 0200 UTC 25 April 2019
Temperature: 8.0°C (46°F)
Dewpoint: 8.0°C (46°F) [RH = 100%]
Pressure (altimeter): 30.27 inches Hg (1025.0 mb)
Winds: from the SE (130 degrees) at 2 MPH (2 knots; 1.0 m/s)
Visibility: 1.30 miles (2.09 km)
Ceiling: at least 12,000 feet AGL
Clouds: few clouds at 5000 feet AGL
Weather: BR  (mist)

METAR text: UTSK 250130Z 33002KT 1700 BR NSC 06/06 Q1025 R16/290050
Conditions at: UTSK (KARSHI KHANABAD , UZ) observed 0130 UTC 25 April 2019
Temperature: 6.0°C (43°F)
Dewpoint: 6.0°C (43°F) [RH = 100%]
Pressure (altimeter): 30.27 inches Hg (1025.0 mb)
Winds: from the NNW (330 degrees) at 2 MPH (2 knots; 1.0 m/s)
Visibility: 1.06 miles (1.71 km)
Ceiling: at least 12,000 feet AGL
Clouds: sky clear below 12,000 feet AGL
Weather: BR  (mist)

METAR text: UTSK 250100Z 28002KT 0250 R16/M0300N FG VV005 06/06 Q1025 R16/290050 RMK BASE500
Conditions at: UTSK (KARSHI KHANABAD , UZ) observed 0100 UTC 25 April 2019
Temperature: 6.0°C (43°F)
Dewpoint: 6.0°C (43°F) [RH = 100%]
Pressure (altimeter): 30.27 inches Hg (1025.0 mb)
Winds: from the W (280 degrees) at 2 MPH (2 knots; 1.0 m/s)
Visibility: 0.16 miles (0.26 km)
Ceiling: indefinite ceiling with vertical visibility of 500 feet AGL
Clouds: obscured sky
Weather: FG  (fog)

METAR text: UTSK 250030Z VRB02KT 0250 R16/M0300N FG VV008 07/07 Q1025 R16/290050 RMK BASE860
Conditions at: UTSK (KARSHI KHANABAD , UZ) observed 0030 UTC 25 April 2019
Temperature: 7.0°C (45°F)
Dewpoint: 7.0°C (45°F) [RH = 100%]
Pressure (altimeter): 30.27 inches Hg (1025.0 mb)
Winds: variable direction winds at 2 MPH (2 knots; 1.0 m/s)
Visibility: 0.16 miles (0.26 km)
Ceiling: indefinite ceiling with vertical visibility of 800 feet AGL
Clouds: obscured sky
Weather: FG  (fog)

METAR text: UTSK 250000Z 00000KT 0150 R16/0400N FG VV008 07/07 Q1025 R16/290050 RMK BASE860
Conditions at: UTSK (KARSHI KHANABAD , UZ) observed 0000 UTC 25 April 2019
Temperature: 7.0°C (45°F)
Dewpoint: 7.0°C (45°F) [RH = 100%]
Pressure (altimeter): 30.27 inches Hg (1025.0 mb)
Winds: calm
Visibility: 0.09 miles (0.14 km)
Ceiling: indefinite ceiling with vertical visibility of 800 feet AGL
Clouds: obscured sky
Weather: FG  (fog)

METAR text: UTSK 242330Z 18002KT 0100 R16/0300N FG VV002 08/08 Q1025 R16/290050 RMK BASE200
Conditions at: UTSK (KARSHI KHANABAD , UZ) observed 2330 UTC 24 April 2019
Temperature: 8.0°C (46°F)
Dewpoint: 8.0°C (46°F) [RH = 100%]
Pressure (altimeter): 30.27 inches Hg (1025.0 mb)
Winds: from the S (180 degrees) at 2 MPH (2 knots; 1.0 m/s)
Visibility: 0.06 miles (0.10 km)
Ceiling: indefinite ceiling with vertical visibility of 200 feet AGL
Clouds: obscured sky
Weather: FG  (fog)

METAR text: UTSK 242300Z 20002KT 0400 R16/0400D FG BKN006 OVC033CB 08/08 Q1025 R16/290050 RMK BASE660
Conditions at: UTSK (KARSHI KHANABAD , UZ) observed 2300 UTC 24 April 2019
Temperature: 8.0°C (46°F)
Dewpoint: 8.0°C (46°F) [RH = 100%]
Pressure (altimeter): 30.27 inches Hg (1025.0 mb)
Winds: from the SSW (200 degrees) at 2 MPH (2 knots; 1.0 m/s)
Visibility: 0.25 miles (0.40 km)
Ceiling: 600 feet AGL
Clouds: broken clouds at 600 feet AGL
overcast cloud deck at 3300 feet AGL
Weather: FG  (fog)

METAR text: UTSK 242230Z 18004KT 2000 BR BKN008 OVC033CB 09/08 Q1025 R16/290050 RMK BASE860
Conditions at: UTSK (KARSHI KHANABAD , UZ) observed 2230 UTC 24 April 2019
Temperature: 9.0°C (48°F)
Dewpoint: 8.0°C (46°F) [RH = 93%]
Pressure (altimeter): 30.27 inches Hg (1025.0 mb)
Winds: from the S (180 degrees) at 5 MPH (4 knots; 2.1 m/s)
Visibility: 1.24 miles (2.00 km)
Ceiling: 800 feet AGL
Clouds: broken clouds at 800 feet AGL
overcast cloud deck at 3300 feet AGL
Weather: BR  (mist)

METAR text: UTSK 242200Z 18002KT 2800 BR NSC 09/08 Q1025 R16/290050
Conditions at: UTSK (KARSHI KHANABAD , UZ) observed 2200 UTC 24 April 2019
Temperature: 9.0°C (48°F)
Dewpoint: 8.0°C (46°F) [RH = 93%]
Pressure (altimeter): 30.27 inches Hg (1025.0 mb)
Winds: from the S (180 degrees) at 2 MPH (2 knots; 1.0 m/s)
Visibility: 1.74 miles (2.80 km)
Ceiling: at least 12,000 feet AGL
Clouds: sky clear below 12,000 feet AGL
Weather: BR  (mist)

METAR text: UTSK 242130Z 23002KT 6000 SCT050CB 10/09 Q1025 R16/290050
Conditions at: UTSK (KARSHI KHANABAD , UZ) observed 2130 UTC 24 April 2019
Temperature: 10.0°C (50°F)
Dewpoint: 9.0°C (48°F) [RH = 93%]
Pressure (altimeter): 30.27 inches Hg (1025.0 mb)
Winds: from the SW (230 degrees) at 2 MPH (2 knots; 1.0 m/s)
Visibility: 4 miles ( 6 km)
Ceiling: at least 12,000 feet AGL
Clouds: scattered clouds at 5000 feet AGL
Weather: no significant weather observed at this time

METAR text: UTSK 242100Z 21002KT 9999 -SHRA SCT050CB 10/09 Q1025 R16/290050
Conditions at: UTSK (KARSHI KHANABAD , UZ) observed 2100 UTC 24 April 2019
Temperature: 10.0°C (50°F)
Dewpoint: 9.0°C (48°F) [RH = 93%]
Pressure (altimeter): 30.27 inches Hg (1025.0 mb)
Winds: from the SSW (210 degrees) at 2 MPH (2 knots; 1.0 m/s)
Visibility: 6 or more miles (10+ km)
Ceiling: at least 12,000 feet AGL
Clouds: scattered clouds at 5000 feet AGL
Weather: -SHRA  (light rain showers)

METAR text: UTSK 242030Z 20002KT 9999 -SHRA SCT050CB 10/09 Q1025 R16/290050
Conditions at: UTSK (KARSHI KHANABAD , UZ) observed 2030 UTC 24 April 2019
Temperature: 10.0°C (50°F)
Dewpoint: 9.0°C (48°F) [RH = 93%]
Pressure (altimeter): 30.27 inches Hg (1025.0 mb)
Winds: from the SSW (200 degrees) at 2 MPH (2 knots; 1.0 m/s)
Visibility: 6 or more miles (10+ km)
Ceiling: at least 12,000 feet AGL
Clouds: scattered clouds at 5000 feet AGL
Weather: -SHRA  (light rain showers)

METAR text: UTSK 242000Z 24004KT 9999 -SHRA SCT047CB 10/09 Q1025 R16/190060
Conditions at: UTSK (KARSHI KHANABAD , UZ) observed 2000 UTC 24 April 2019
Temperature: 10.0°C (50°F)
Dewpoint: 9.0°C (48°F) [RH = 93%]
Pressure (altimeter): 30.27 inches Hg (1025.0 mb)
Winds: from the WSW (240 degrees) at 5 MPH (4 knots; 2.1 m/s)
Visibility: 6 or more miles (10+ km)
Ceiling: at least 12,000 feet AGL
Clouds: scattered clouds at 4700 feet AGL
Weather: -SHRA  (light rain showers)

METAR text: UTSK 241930Z 23004KT 9999 BKN040CB 10/09 Q1025 R16/190060
Conditions at: UTSK (KARSHI KHANABAD , UZ) observed 1930 UTC 24 April 2019
Temperature: 10.0°C (50°F)
Dewpoint: 9.0°C (48°F) [RH = 93%]
Pressure (altimeter): 30.27 inches Hg (1025.0 mb)
Winds: from the SW (230 degrees) at 5 MPH (4 knots; 2.1 m/s)
Visibility: 6 or more miles (10+ km)
Ceiling: 4000 feet AGL
Clouds: broken clouds at 4000 feet AGL
Weather: no significant weather observed at this time

METAR text: UTSK 241900Z 23004KT 9999 BKN040CB 10/09 Q1025 R16/190060
Conditions at: UTSK (KARSHI KHANABAD , UZ) observed 1900 UTC 24 April 2019
Temperature: 10.0°C (50°F)
Dewpoint: 9.0°C (48°F) [RH = 93%]
Pressure (altimeter): 30.27 inches Hg (1025.0 mb)
Winds: from the SW (230 degrees) at 5 MPH (4 knots; 2.1 m/s)
Visibility: 6 or more miles (10+ km)
Ceiling: 4000 feet AGL
Clouds: broken clouds at 4000 feet AGL
Weather: no significant weather observed at this time

METAR text: UTSK 241830Z 20004KT 9999 -SHRA BKN040CB 10/09 Q1025 R16/190060
Conditions at: UTSK (KARSHI KHANABAD , UZ) observed 1830 UTC 24 April 2019
Temperature: 10.0°C (50°F)
Dewpoint: 9.0°C (48°F) [RH = 93%]
Pressure (altimeter): 30.27 inches Hg (1025.0 mb)
Winds: from the SSW (200 degrees) at 5 MPH (4 knots; 2.1 m/s)
Visibility: 6 or more miles (10+ km)
Ceiling: 4000 feet AGL
Clouds: broken clouds at 4000 feet AGL
Weather: -SHRA  (light rain showers)

METAR text: UTSK 241800Z 22002KT 9999 -SHRA BKN040CB 10/09 Q1025 R16/190060
Conditions at: UTSK (KARSHI KHANABAD , UZ) observed 1800 UTC 24 April 2019
Temperature: 10.0°C (50°F)
Dewpoint: 9.0°C (48°F) [RH = 93%]
Pressure (altimeter): 30.27 inches Hg (1025.0 mb)
Winds: from the SW (220 degrees) at 2 MPH (2 knots; 1.0 m/s)
Visibility: 6 or more miles (10+ km)
Ceiling: 4000 feet AGL
Clouds: broken clouds at 4000 feet AGL
Weather: -SHRA  (light rain showers)

METAR text: UTSK 241730Z 27006KT 9999 BKN050CB 11/10 Q1025 R16/190060
Conditions at: UTSK (KARSHI KHANABAD , UZ) observed 1730 UTC 24 April 2019
Temperature: 11.0°C (52°F)
Dewpoint: 10.0°C (50°F) [RH = 94%]
Pressure (altimeter): 30.27 inches Hg (1025.0 mb)
Winds: from the W (270 degrees) at 7 MPH (6 knots; 3.1 m/s)
Visibility: 6 or more miles (10+ km)
Ceiling: 5000 feet AGL
Clouds: broken clouds at 5000 feet AGL
Weather: no significant weather observed at this time

METAR text: UTSK 241700Z 18004KT 9999 BKN050CB 11/10 Q1025 R16/190060
Conditions at: UTSK (KARSHI KHANABAD , UZ) observed 1700 UTC 24 April 2019
Temperature: 11.0°C (52°F)
Dewpoint: 10.0°C (50°F) [RH = 94%]
Pressure (altimeter): 30.27 inches Hg (1025.0 mb)
Winds: from the S (180 degrees) at 5 MPH (4 knots; 2.1 m/s)
Visibility: 6 or more miles (10+ km)
Ceiling: 5000 feet AGL
Clouds: broken clouds at 5000 feet AGL
Weather: no significant weather observed at this time

METAR text: UTSK 241630Z 16006KT 9000 BKN050CB 10/09 Q1024 R16/190060
Conditions at: UTSK (KARSHI KHANABAD , UZ) observed 1630 UTC 24 April 2019
Temperature: 10.0°C (50°F)
Dewpoint: 9.0°C (48°F) [RH = 93%]
Pressure (altimeter): 30.24 inches Hg (1024.0 mb)
Winds: from the SSE (160 degrees) at 7 MPH (6 knots; 3.1 m/s)
Visibility: 6 miles ( 9 km)
Ceiling: 5000 feet AGL
Clouds: broken clouds at 5000 feet AGL
Weather: no significant weather observed at this time

METAR text: UTSK 241600Z 15004KT 9999 BKN050CB 10/09 Q1024 R16/190060
Conditions at: UTSK (KARSHI KHANABAD , UZ) observed 1600 UTC 24 April 2019
Temperature: 10.0°C (50°F)
Dewpoint: 9.0°C (48°F) [RH = 93%]
Pressure (altimeter): 30.24 inches Hg (1024.0 mb)
Winds: from the SSE (150 degrees) at 5 MPH (4 knots; 2.1 m/s)
Visibility: 6 or more miles (10+ km)
Ceiling: 5000 feet AGL
Clouds: broken clouds at 5000 feet AGL
Weather: no significant weather observed at this time

Forecast for: UTSK (KARSHI KHANABAD , UZ)
Text: TAF UTSK 260250Z 2604/2613 VRB04KT 9999 SCT050CB BKN100
Forecast period: 0400 to 1300 UTC 26 April 2019
Forecast type: FROM: standard forecast or significant change
Winds: variable direction winds at 5 MPH (4 knots; 2.1 m/s)
Visibility: 6 or more miles 10+ km)
Ceiling: 10000 feet AGL
Clouds: scattered clouds at 5000 feet AGL
broken clouds at 10000 feet AGL
Weather: no significant weather forecast for this period